Disclaimer

Please do not use the information listed here in-flight or in-navigation, as they are not provided to us by the airports but are provided by volunteers, so they might be outdated.

Search


Regions


Airport information page

Radio informations:
Tower (TWR) - 118.1 MHz
Ground (GND) - 121.9 MHz

Airport informations:
Latitude: 39° 48' 49.78" N
Longitude: 036° 54' 12.59" E
Elevation: 5236 feet - 1596 meters
Operating hours: Remarks
Operating agency: Civil government, landing fees and diplomatic clearance may be required
Timezone: UTC+2(+3DT) - Dates notified by NOTAM
Fuel: Jet A1, without icing nhibitor.

100/130 octane gasoline, leaded, MIL-L-5572F (GREEN)

Runway information:
01/19 - 12503 x 98 feet< - >3811 x 30 meters

Recent METARs:
LTAR 151050Z VRB03KT 9999 SCT035 M01/M06 Q1015
LTAR 151050Z VRB03KT 9999 SCT035 M01/M06 Q1015
LTAR 151150Z VRB04KT 9999 SCT036 01/M06 Q1015

Airport on the map: